Nearby METAR Reports

 

KOGD - Ogden, Utah, USA
Distance from station: NNW 6mi, 10km
Updated: Wed, 17-Jul-2024 3:53pm MDT
Clear
Clear
 Wind from WSW
Wind: WSW 7 mph, 11 km/h
Temperature: 99°F, 37°C
Dew Point: 43°F, 6°C
Humidity: 15%
Barometer: 30.08 inHg, 1018.6 hPa
Clouds: Clear
Visibility: 10 miles, 16 km
2024/07/17 21:53 KOGD 172153Z 25006KT 10SM CLR 37/06 A3008 RMK AO2 SLP109 T03720056
KSLC - Salt Lake City, Utah, USA
Distance from station: S 24mi, 39km
Updated: Wed, 17-Jul-2024 3:54pm MDT
Few Clouds
Few Clouds
 Wind from N
Wind: N 13 mph, 20 km/h
Temperature: 100°F, 38°C
Dew Point: 37°F, 3°C
Humidity: 11%
Barometer: 30.06 inHg, 1017.9 hPa
Clouds: Few Clouds
Visibility: 10 miles, 16 km
Cloud details: Few Clouds 9000 ft
Few Clouds 16000 ft
Few Clouds 25000 ft
2024/07/17 21:54 KSLC 172154Z 35011KT 10SM FEW090 FEW160 FEW250 38/03 A3006 RMK AO2 SLP109 T03780028
 
KBMC - Brigham City, Utah, USA
Distance from station: N 30mi, 49km
Updated: Wed, 17-Jul-2024 3:35pm MDT
Clear
Clear
 Wind from WSW
Wind: WSW 7 mph, 11 km/h
Temperature: 95°F, 35°C
Dew Point: 32°F, 0°C
Humidity: 11%
Barometer: 30.09 inHg, 1019 hPa
Clouds: Clear
Visibility: 10 miles, 16 km
2024/07/17 21:35 KBMC 172135Z AUTO 25006KT 10SM CLR 35/00 A3009 RMK AO1 T03530000
KU42 - Salt Lake Muni, Utah, USA
Distance from station: S 35mi, 56km
Updated: Wed, 17-Jul-2024 3:55pm MDT
Clear
Clear
 Wind from WSW
Wind: WSW 5 mph, 7 km/h
Temperature: 97°F, 36°C
Dew Point: 32°F, 0°C
Humidity: 10%
Barometer: 30.11 inHg, 1019.6 hPa
Clouds: Clear
Visibility: 10 miles, 16 km
2024/07/17 21:55 KU42 172155Z AUTO 25004KT 10SM CLR 36/00 A3011 RMK AO1 T03630004
 
KTVY - Tooele, Utah, USA
Distance from station: SSW 40mi, 64km
Updated: Wed, 17-Jul-2024 3:55pm MDT
Clear
Clear
 Wind from N
Wind: N 15 mph, 24 km/h, Gust: 18 mph, 30 km/h
Temperature: 97°F, 36°C
Dew Point: 41°F, 5°C
Humidity: 14%
Barometer: 30.08 inHg, 1018.6 hPa
Clouds: Clear
Visibility: 10 miles, 16 km
2024/07/17 21:55 KTVY 172155Z AUTO 01013G16KT 10SM CLR 36/05 A3008 RMK AO2
KLGU - Logan, Utah, USA
Distance from station: N 46mi, 75km
Updated: Wed, 17-Jul-2024 3:51pm MDT
Clear
Clear
 
Temperature: 97°F, 36°C
Dew Point: 37°F, 3°C
Humidity: 13%
Barometer: 30.09 inHg, 1019 hPa
Clouds: Clear
Visibility: 10 miles, 16 km
2024/07/17 21:51 KLGU 172151Z AUTO 10SM CLR 36/03 A3009 RMK AO2 SLP120 T03560033
 
KEVW - Evanston, Wyoming, USA
Distance from station: ENE 50mi, 80km
Updated: Wed, 17-Jul-2024 3:53pm MDT
Clear
Clear
 Wind from NE
Wind: NE 13 mph, 20 km/h, Gust: 23 mph, 37 km/h
Temperature: 88°F, 31°C
Dew Point: 36°F, 2°C
Humidity: 16%
Barometer: 30.33 inHg, 1027.1 hPa
Clouds: Clear
Visibility: 10 miles, 16 km
2024/07/17 21:53 KEVW 172153Z AUTO 04011G20KT 10SM CLR 31/02 A3033 RMK AO2 SLP159 T03060017